sensor_id;sensor_type;location;lat;lon;timestamp;pressure;altitude;pressure_sealevel;temperature;humidity
596;BME280;19946;49.306;11.350;2023-04-04T00:01:57;97227.03;;;-1.96;100.00
596;BME280;19946;49.306;11.350;2023-04-04T00:05:00;97232.06;;;-1.94;100.00
596;BME280;19946;49.306;11.350;2023-04-04T00:08:01;97208.16;;;-2.21;100.00
596;BME280;19946;49.306;11.350;2023-04-04T00:11:02;97225.69;;;-2.12;100.00
596;BME280;19946;49.306;11.350;2023-04-04T00:14:02;97249.06;;;-1.96;100.00
596;BME280;19946;49.306;11.350;2023-04-04T00:17:04;97246.47;;;-1.95;100.00
596;BME280;19946;49.306;11.350;2023-04-04T00:20:05;97237.59;;;-2.14;100.00
596;BME280;19946;49.306;11.350;2023-04-04T00:23:06;97232.78;;;-2.26;100.00
596;BME280;19946;49.306;11.350;2023-04-04T00:26:10;97250.38;;;-2.17;100.00
596;BME280;19946;49.306;11.350;2023-04-04T00:29:11;97219.19;;;-2.24;100.00
596;BME280;19946;49.306;11.350;2023-04-04T00:32:11;97213.56;;;-2.36;100.00
596;BME280;19946;49.306;11.350;2023-04-04T00:35:12;97149.13;;;-2.66;100.00
596;BME280;19946;49.306;11.350;2023-04-04T00:38:13;97230.06;;;-2.17;100.00
596;BME280;19946;49.306;11.350;2023-04-04T00:41:19;97212.59;;;-2.31;100.00
596;BME280;19946;49.306;11.350;2023-04-04T00:44:21;97187.47;;;-2.41;100.00
596;BME280;19946;49.306;11.350;2023-04-04T00:47:23;97124.00;;;-2.77;100.00
596;BME280;19946;49.306;11.350;2023-04-04T00:50:26;97174.03;;;-2.46;100.00
596;BME280;19946;49.306;11.350;2023-04-04T00:53:28;97215.59;;;-2.13;100.00
596;BME280;19946;49.306;11.350;2023-04-04T00:56:29;97200.31;;;-2.12;100.00
596;BME280;19946;49.306;11.350;2023-04-04T00:59:36;97199.41;;;-2.08;100.00
596;BME280;19946;49.306;11.350;2023-04-04T01:02:36;97210.22;;;-2.01;100.00
596;BME280;19946;49.306;11.350;2023-04-04T01:05:37;97205.19;;;-2.03;100.00
596;BME280;19946;49.306;11.350;2023-04-04T01:08:39;97196.78;;;-2.05;100.00
596;BME280;19946;49.306;11.350;2023-04-04T01:11:43;97150.97;;;-2.36;100.00
596;BME280;19946;49.306;11.350;2023-04-04T01:14:43;97132.09;;;-2.60;100.00
596;BME280;19946;49.306;11.350;2023-04-04T01:17:45;97192.88;;;-2.18;100.00
596;BME280;19946;49.306;11.350;2023-04-04T01:21:01;97077.91;;;-2.94;100.00
596;BME280;19946;49.306;11.350;2023-04-04T01:24:03;97079.88;;;-3.07;100.00
596;BME280;19946;49.306;11.350;2023-04-04T01:27:16;97145.75;;;-2.67;100.00
596;BME280;19946;49.306;11.350;2023-04-04T01:30:27;97130.78;;;-2.77;100.00
596;BME280;19946;49.306;11.350;2023-04-04T01:33:36;97115.50;;;-2.74;100.00
596;BME280;19946;49.306;11.350;2023-04-04T01:40:03;97197.78;;;-2.49;100.00
596;BME280;19946;49.306;11.350;2023-04-04T01:43:09;97185.59;;;-2.72;100.00
596;BME280;19946;49.306;11.350;2023-04-04T01:46:11;97184.75;;;-2.72;100.00
596;BME280;19946;49.306;11.350;2023-04-04T01:49:13;97162.03;;;-2.77;100.00
596;BME280;19946;49.306;11.350;2023-04-04T01:52:15;97106.16;;;-3.12;100.00
596;BME280;19946;49.306;11.350;2023-04-04T01:55:16;97174.72;;;-2.78;100.00
596;BME280;19946;49.306;11.350;2023-04-04T01:58:17;97061.38;;;-3.52;100.00
596;BME280;19946;49.306;11.350;2023-04-04T02:01:17;97145.97;;;-3.17;100.00
596;BME280;19946;49.306;11.350;2023-04-04T02:04:17;97153.44;;;-3.13;100.00
596;BME280;19946;49.306;11.350;2023-04-04T02:07:18;97106.16;;;-3.55;100.00
596;BME280;19946;49.306;11.350;2023-04-04T02:10:21;97153.16;;;-3.41;100.00
596;BME280;19946;49.306;11.350;2023-04-04T02:13:25;97116.84;;;-3.86;100.00
596;BME280;19946;49.306;11.350;2023-04-04T02:16:26;97171.44;;;-3.73;100.00
596;BME280;19946;49.306;11.350;2023-04-04T02:19:27;97092.19;;;-4.22;100.00
596;BME280;19946;49.306;11.350;2023-04-04T02:22:28;97117.97;;;-4.00;100.00
596;BME280;19946;49.306;11.350;2023-04-04T02:25:38;97165.50;;;-3.70;100.00
596;BME280;19946;49.306;11.350;2023-04-04T02:28:40;97158.84;;;-3.76;100.00
596;BME280;19946;49.306;11.350;2023-04-04T02:31:47;97167.09;;;-3.66;100.00
596;BME280;19946;49.306;11.350;2023-04-04T02:34:57;97114.53;;;-3.99;100.00
596;BME280;19946;49.306;11.350;2023-04-04T02:38:05;97159.63;;;-3.72;100.00
596;BME280;19946;49.306;11.350;2023-04-04T02:41:17;97169.16;;;-3.86;100.00
596;BME280;19946;49.306;11.350;2023-04-04T02:44:23;97014.91;;;-4.91;100.00
596;BME280;19946;49.306;11.350;2023-04-04T02:47:36;97113.97;;;-4.14;100.00
596;BME280;19946;49.306;11.350;2023-04-04T02:50:39;97128.94;;;-4.01;100.00
596;BME280;19946;49.306;11.350;2023-04-04T02:53:59;97159.81;;;-3.83;100.00
596;BME280;19946;49.306;11.350;2023-04-04T02:57:09;97163.25;;;-3.87;100.00
596;BME280;19946;49.306;11.350;2023-04-04T03:00:18;97156.56;;;-3.89;100.00
596;BME280;19946;49.306;11.350;2023-04-04T03:03:37;97104.03;;;-4.26;100.00
596;BME280;19946;49.306;11.350;2023-04-04T03:06:49;97150.88;;;-4.02;100.00
596;BME280;19946;49.306;11.350;2023-04-04T03:09:51;97156.69;;;-3.98;100.00
596;BME280;19946;49.306;11.350;2023-04-04T03:13:27;97141.72;;;-4.11;100.00
596;BME280;19946;49.306;11.350;2023-04-04T03:16:35;97013.28;;;-4.96;100.00
596;BME280;19946;49.306;11.350;2023-04-04T03:20:02;97155.69;;;-3.88;100.00
596;BME280;19946;49.306;11.350;2023-04-04T03:23:04;97135.59;;;-3.97;100.00
596;BME280;19946;49.306;11.350;2023-04-04T03:26:08;97122.97;;;-3.99;100.00
596;BME280;19946;49.306;11.350;2023-04-04T03:29:46;97153.91;;;-3.82;100.00
596;BME280;19946;49.306;11.350;2023-04-04T03:32:53;97144.69;;;-3.86;100.00
596;BME280;19946;49.306;11.350;2023-04-04T03:35:59;97158.28;;;-3.91;100.00
596;BME280;19946;49.306;11.350;2023-04-04T03:39:06;97148.84;;;-3.82;100.00
596;BME280;19946;49.306;11.350;2023-04-04T03:42:34;97133.09;;;-3.99;100.00
596;BME280;19946;49.306;11.350;2023-04-04T03:45:52;97112.13;;;-4.06;100.00
596;BME280;19946;49.306;11.350;2023-04-04T03:49:28;97148.06;;;-3.87;100.00
596;BME280;19946;49.306;11.350;2023-04-04T03:52:56;97151.44;;;-3.86;100.00
596;BME280;19946;49.306;11.350;2023-04-04T03:56:17;97092.94;;;-4.17;100.00
596;BME280;19946;49.306;11.350;2023-04-04T03:59:19;97143.09;;;-3.91;100.00
596;BME280;19946;49.306;11.350;2023-04-04T04:02:25;97141.97;;;-3.75;100.00
596;BME280;19946;49.306;11.350;2023-04-04T04:05:54;97126.88;;;-3.80;100.00
596;BME280;19946;49.306;11.350;2023-04-04T04:09:01;97148.34;;;-3.56;100.00
596;BME280;19946;49.306;11.350;2023-04-04T04:12:09;97144.25;;;-3.60;100.00
596;BME280;19946;49.306;11.350;2023-04-04T04:15:12;97145.31;;;-3.75;100.00
596;BME280;19946;49.306;11.350;2023-04-04T04:18:17;97150.19;;;-3.62;100.00
596;BME280;19946;49.306;11.350;2023-04-04T04:21:21;97139.56;;;-3.83;100.00
596;BME280;19946;49.306;11.350;2023-04-04T04:24:51;97158.94;;;-3.80;100.00
596;BME280;19946;49.306;11.350;2023-04-04T04:27:56;97135.19;;;-3.73;100.00
596;BME280;19946;49.306;11.350;2023-04-04T04:31:06;97146.25;;;-3.79;100.00
596;BME280;19946;49.306;11.350;2023-04-04T04:34:36;97149.88;;;-3.93;100.00
596;BME280;19946;49.306;11.350;2023-04-04T04:37:42;97135.56;;;-3.96;100.00
596;BME280;19946;49.306;11.350;2023-04-04T04:40:53;97103.25;;;-4.29;100.00
596;BME280;19946;49.306;11.350;2023-04-04T04:44:04;97137.38;;;-4.01;100.00
596;BME280;19946;49.306;11.350;2023-04-04T04:47:07;97153.19;;;-3.90;100.00
596;BME280;19946;49.306;11.350;2023-04-04T04:50:11;97128.75;;;-3.91;100.00
596;BME280;19946;49.306;11.350;2023-04-04T04:53:22;97159.47;;;-3.63;100.00
596;BME280;19946;49.306;11.350;2023-04-04T04:56:24;97140.09;;;-3.65;100.00
596;BME280;19946;49.306;11.350;2023-04-04T04:59:31;97149.28;;;-3.58;100.00
596;BME280;19946;49.306;11.350;2023-04-04T05:02:35;97137.59;;;-3.67;100.00
596;BME280;19946;49.306;11.350;2023-04-04T05:05:43;97145.91;;;-3.59;100.00
596;BME280;19946;49.306;11.350;2023-04-04T05:09:09;97161.13;;;-3.62;100.00
596;BME280;19946;49.306;11.350;2023-04-04T05:12:17;97151.72;;;-3.55;100.00
596;BME280;19946;49.306;11.350;2023-04-04T05:15:25;97096.63;;;-3.87;100.00
596;BME280;19946;49.306;11.350;2023-04-04T05:18:44;97150.88;;;-3.54;100.00
596;BME280;19946;49.306;11.350;2023-04-04T05:21:50;97148.41;;;-3.57;100.00
596;BME280;19946;49.306;11.350;2023-04-04T05:25:02;97099.13;;;-3.86;100.00
596;BME280;19946;49.306;11.350;2023-04-04T05:28:04;97148.16;;;-3.45;100.00
596;BME280;19946;49.306;11.350;2023-04-04T05:31:06;97153.09;;;-3.36;100.00
596;BME280;19946;49.306;11.350;2023-04-04T05:34:24;97153.78;;;-3.28;100.00
596;BME280;19946;49.306;11.350;2023-04-04T05:37:30;97150.41;;;-3.28;100.00
596;BME280;19946;49.306;11.350;2023-04-04T05:40:35;97158.56;;;-3.14;100.00
596;BME280;19946;49.306;11.350;2023-04-04T05:43:46;97155.91;;;-3.08;100.00
596;BME280;19946;49.306;11.350;2023-04-04T05:46:54;97153.31;;;-3.04;100.00
596;BME280;19946;49.306;11.350;2023-04-04T05:49:57;97152.16;;;-2.90;100.00
596;BME280;19946;49.306;11.350;2023-04-04T05:53:03;97162.22;;;-2.86;100.00
596;BME280;19946;49.306;11.350;2023-04-04T05:56:04;97121.22;;;-3.05;100.00
596;BME280;19946;49.306;11.350;2023-04-04T05:59:08;97140.97;;;-2.80;100.00
596;BME280;19946;49.306;11.350;2023-04-04T06:02:16;97159.28;;;-2.68;100.00
596;BME280;19946;49.306;11.350;2023-04-04T06:05:42;97166.06;;;-2.68;100.00
596;BME280;19946;49.306;11.350;2023-04-04T06:08:50;97153.13;;;-2.56;100.00
596;BME280;19946;49.306;11.350;2023-04-04T06:11:53;97115.56;;;-2.77;100.00
596;BME280;19946;49.306;11.350;2023-04-04T06:15:08;97156.84;;;-2.34;100.00
596;BME280;19946;49.306;11.350;2023-04-04T06:18:11;97160.13;;;-2.29;100.00
596;BME280;19946;49.306;11.350;2023-04-04T06:21:12;97165.72;;;-2.16;100.00
596;BME280;19946;49.306;11.350;2023-04-04T06:24:14;97162.41;;;-2.16;100.00
596;BME280;19946;49.306;11.350;2023-04-04T06:27:17;97168.81;;;-2.03;100.00
596;BME280;19946;49.306;11.350;2023-04-04T06:30:19;97167.09;;;-2.01;100.00
596;BME280;19946;49.306;11.350;2023-04-04T06:33:25;97170.28;;;-1.93;100.00
596;BME280;19946;49.306;11.350;2023-04-04T06:36:26;97177.78;;;-1.89;100.00
596;BME280;19946;49.306;11.350;2023-04-04T06:39:27;97172.44;;;-1.78;100.00
596;BME280;19946;49.306;11.350;2023-04-04T06:42:34;97182.44;;;-1.72;100.00
596;BME280;19946;49.306;11.350;2023-04-04T06:45:41;97148.72;;;-1.77;100.00
596;BME280;19946;49.306;11.350;2023-04-04T06:48:43;97138.66;;;-1.80;100.00
596;BME280;19946;49.306;11.350;2023-04-04T06:51:45;97087.59;;;-2.02;100.00
596;BME280;19946;49.306;11.350;2023-04-04T06:54:46;97161.66;;;-1.52;100.00
596;BME280;19946;49.306;11.350;2023-04-04T06:57:48;97154.72;;;-1.47;100.00
596;BME280;19946;49.306;11.350;2023-04-04T07:00:49;97173.59;;;-1.23;100.00
596;BME280;19946;49.306;11.350;2023-04-04T07:03:52;97100.88;;;-1.60;100.00
596;BME280;19946;49.306;11.350;2023-04-04T07:06:53;97125.88;;;-1.44;100.00
596;BME280;19946;49.306;11.350;2023-04-04T07:09:58;97170.47;;;-1.02;100.00
596;BME280;19946;49.306;11.350;2023-04-04T07:13:02;97123.81;;;-1.30;100.00
596;BME280;19946;49.306;11.350;2023-04-04T07:16:04;97145.91;;;-1.03;100.00
596;BME280;19946;49.306;11.350;2023-04-04T07:19:09;97118.66;;;-0.98;100.00
596;BME280;19946;49.306;11.350;2023-04-04T07:22:09;97162.56;;;-0.63;100.00
596;BME280;19946;49.306;11.350;2023-04-04T07:25:11;97153.22;;;-0.63;100.00
596;BME280;19946;49.306;11.350;2023-04-04T07:28:19;97163.53;;;-0.38;100.00
596;BME280;19946;49.306;11.350;2023-04-04T07:31:24;97172.75;;;-0.34;100.00
596;BME280;19946;49.306;11.350;2023-04-04T07:34:26;97071.47;;;-1.08;100.00
596;BME280;19946;49.306;11.350;2023-04-04T07:37:27;97169.91;;;-0.25;99.19
596;BME280;19946;49.306;11.350;2023-04-04T07:40:28;97158.94;;;-0.27;93.94
596;BME280;19946;49.306;11.350;2023-04-04T07:43:29;97102.41;;;-0.64;88.79
596;BME280;19946;49.306;11.350;2023-04-04T07:46:32;97092.91;;;-0.31;83.45
596;BME280;19946;49.306;11.350;2023-04-04T07:49:34;97167.53;;;-0.03;79.43
596;BME280;19946;49.306;11.350;2023-04-04T07:52:34;97182.41;;;0.35;79.10
596;BME280;19946;49.306;11.350;2023-04-04T07:55:35;97157.97;;;0.80;70.41
596;BME280;19946;49.306;11.350;2023-04-04T07:58:37;97134.47;;;0.22;68.79
596;BME280;19946;49.306;11.350;2023-04-04T08:01:37;97183.09;;;0.41;76.23
596;BME280;19946;49.306;11.350;2023-04-04T08:04:39;97172.34;;;0.57;75.75
596;BME280;19946;49.306;11.350;2023-04-04T08:07:39;97168.44;;;0.47;72.49
596;BME280;19946;49.306;11.350;2023-04-04T08:10:40;97150.66;;;0.21;72.57
596;BME280;19946;49.306;11.350;2023-04-04T08:13:42;97118.84;;;-0.20;67.69
596;BME280;19946;49.306;11.350;2023-04-04T08:16:43;97143.84;;;-0.05;73.61
596;BME280;19946;49.306;11.350;2023-04-04T08:19:43;97185.34;;;0.23;74.83
596;BME280;19946;49.306;11.350;2023-04-04T08:22:44;97171.03;;;0.21;69.09
596;BME280;19946;49.306;11.350;2023-04-04T08:25:45;97141.88;;;0.03;65.49
596;BME280;19946;49.306;11.350;2023-04-04T08:28:49;97168.97;;;0.32;69.02
596;BME280;19946;49.306;11.350;2023-04-04T08:31:51;97178.94;;;0.38;65.52
596;BME280;19946;49.306;11.350;2023-04-04T08:34:53;97178.22;;;0.59;65.75
596;BME280;19946;49.306;11.350;2023-04-04T08:37:53;97180.00;;;0.32;64.28
596;BME280;19946;49.306;11.350;2023-04-04T08:40:54;97142.91;;;-0.03;63.71
596;BME280;19946;49.306;11.350;2023-04-04T08:43:56;97169.00;;;0.04;64.75
596;BME280;19946;49.306;11.350;2023-04-04T08:47:04;97178.06;;;0.13;65.09
596;BME280;19946;49.306;11.350;2023-04-04T08:50:06;97167.09;;;-0.16;65.39
596;BME280;19946;49.306;11.350;2023-04-04T08:53:08;97165.63;;;0.30;67.64
596;BME280;19946;49.306;11.350;2023-04-04T08:56:09;97181.94;;;0.24;68.45
596;BME280;19946;49.306;11.350;2023-04-04T08:59:11;97156.16;;;0.33;64.85
596;BME280;19946;49.306;11.350;2023-04-04T09:02:40;97148.59;;;1.05;64.73
596;BME280;19946;49.306;11.350;2023-04-04T09:05:42;97168.03;;;0.84;62.40
596;BME280;19946;49.306;11.350;2023-04-04T09:08:43;97147.50;;;1.57;62.83
596;BME280;19946;49.306;11.350;2023-04-04T09:11:45;97151.69;;;1.81;59.55
596;BME280;19946;49.306;11.350;2023-04-04T09:14:49;97165.50;;;1.76;55.75
596;BME280;19946;49.306;11.350;2023-04-04T09:17:50;97158.81;;;2.58;59.82
596;BME280;19946;49.306;11.350;2023-04-04T09:20:52;97116.41;;;2.11;57.94
596;BME280;19946;49.306;11.350;2023-04-04T09:24:00;97094.78;;;1.11;58.33
596;BME280;19946;49.306;11.350;2023-04-04T09:27:01;97171.88;;;1.19;61.13
596;BME280;19946;49.306;11.350;2023-04-04T09:30:02;97159.84;;;1.23;59.68
596;BME280;19946;49.306;11.350;2023-04-04T09:33:07;97130.50;;;0.13;61.94
596;BME280;19946;49.306;11.350;2023-04-04T09:36:12;97183.34;;;0.33;65.02
596;BME280;19946;49.306;11.350;2023-04-04T09:39:13;97099.16;;;-0.14;64.32
596;BME280;19946;49.306;11.350;2023-04-04T09:42:16;97172.53;;;0.26;64.19
596;BME280;19946;49.306;11.350;2023-04-04T09:45:17;97181.34;;;0.16;62.57
596;BME280;19946;49.306;11.350;2023-04-04T09:48:29;97184.53;;;0.23;63.40
596;BME280;19946;49.306;11.350;2023-04-04T09:51:34;97145.41;;;0.98;63.78
596;BME280;19946;49.306;11.350;2023-04-04T09:54:35;97148.56;;;1.95;60.22
596;BME280;19946;49.306;11.350;2023-04-04T09:57:36;97162.88;;;1.99;59.37
596;BME280;19946;49.306;11.350;2023-04-04T10:00:39;97140.72;;;1.11;57.84
596;BME280;19946;49.306;11.350;2023-04-04T10:03:41;97151.47;;;1.64;60.28
596;BME280;19946;49.306;11.350;2023-04-04T10:06:43;97127.06;;;1.57;56.79
596;BME280;19946;49.306;11.350;2023-04-04T10:09:46;97150.94;;;2.42;61.26
596;BME280;19946;49.306;11.350;2023-04-04T10:12:51;97153.78;;;2.95;55.15
596;BME280;19946;49.306;11.350;2023-04-04T10:15:52;97101.84;;;2.54;58.30
596;BME280;19946;49.306;11.350;2023-04-04T10:18:53;97136.44;;;2.00;57.92
596;BME280;19946;49.306;11.350;2023-04-04T10:21:54;97149.47;;;2.16;55.55
596;BME280;19946;49.306;11.350;2023-04-04T10:24:56;97114.69;;;2.32;58.03
596;BME280;19946;49.306;11.350;2023-04-04T10:27:58;97127.06;;;3.02;56.36
596;BME280;19946;49.306;11.350;2023-04-04T10:31:05;97138.97;;;2.63;54.95
596;BME280;19946;49.306;11.350;2023-04-04T10:34:21;97137.31;;;3.21;56.47
596;BME280;19946;49.306;11.350;2023-04-04T10:37:26;97146.81;;;2.17;54.47
596;BME280;19946;49.306;11.350;2023-04-04T10:40:30;97093.94;;;2.19;56.14
596;BME280;19946;49.306;11.350;2023-04-04T10:43:34;97156.19;;;2.59;54.95
596;BME280;19946;49.306;11.350;2023-04-04T10:46:40;97139.25;;;2.96;55.12
596;BME280;19946;49.306;11.350;2023-04-04T10:49:45;97152.16;;;2.74;53.28
596;BME280;19946;49.306;11.350;2023-04-04T10:52:46;97140.97;;;2.36;56.38
596;BME280;19946;49.306;11.350;2023-04-04T10:55:47;97094.13;;;2.35;56.25
596;BME280;19946;49.306;11.350;2023-04-04T10:58:48;97013.28;;;2.14;57.58
596;BME280;19946;49.306;11.350;2023-04-04T11:01:53;97139.25;;;2.77;53.33
596;BME280;19946;49.306;11.350;2023-04-04T11:05:09;97100.56;;;2.64;54.30
596;BME280;19946;49.306;11.350;2023-04-04T11:08:11;97065.88;;;3.52;56.42
596;BME280;19946;49.306;11.350;2023-04-04T11:11:16;97120.22;;;3.95;52.50
596;BME280;19946;49.306;11.350;2023-04-04T11:14:27;97116.09;;;2.80;53.50
596;BME280;19946;49.306;11.350;2023-04-04T11:20:47;97011.72;;;2.69;56.39
596;BME280;19946;49.306;11.350;2023-04-04T11:26:48;97113.34;;;3.78;54.71
596;BME280;19946;49.306;11.350;2023-04-04T11:29:49;97019.59;;;3.38;53.71
596;BME280;19946;49.306;11.350;2023-04-04T11:32:51;96970.16;;;3.72;54.87
596;BME280;19946;49.306;11.350;2023-04-04T11:35:52;97056.84;;;3.26;52.73
596;BME280;19946;49.306;11.350;2023-04-04T11:38:56;97087.53;;;4.00;58.95
596;BME280;19946;49.306;11.350;2023-04-04T11:42:04;97082.63;;;2.84;56.21
596;BME280;19946;49.306;11.350;2023-04-04T11:45:17;97057.44;;;2.56;58.77
596;BME280;19946;49.306;11.350;2023-04-04T11:48:18;97101.09;;;2.32;59.19
596;BME280;19946;49.306;11.350;2023-04-04T11:51:19;97094.88;;;2.17;58.64
596;BME280;19946;49.306;11.350;2023-04-04T11:54:19;97080.44;;;1.96;57.04
596;BME280;19946;49.306;11.350;2023-04-04T11:57:20;97036.78;;;2.02;59.09
596;BME280;19946;49.306;11.350;2023-04-04T12:00:31;96991.69;;;1.60;56.58
596;BME280;19946;49.306;11.350;2023-04-04T12:03:33;97059.69;;;2.03;57.25
596;BME280;19946;49.306;11.350;2023-04-04T12:06:34;97086.59;;;2.32;57.20
596;BME280;19946;49.306;11.350;2023-04-04T12:09:37;97092.91;;;2.64;57.68
596;BME280;19946;49.306;11.350;2023-04-04T12:12:38;97083.47;;;2.46;58.45
596;BME280;19946;49.306;11.350;2023-04-04T12:15:41;97096.19;;;2.27;57.32
596;BME280;19946;49.306;11.350;2023-04-04T12:18:41;97050.81;;;2.12;59.02
596;BME280;19946;49.306;11.350;2023-04-04T12:21:44;97046.16;;;1.59;57.86
596;BME280;19946;49.306;11.350;2023-04-04T12:24:45;97110.13;;;1.98;61.08
596;BME280;19946;49.306;11.350;2023-04-04T12:27:46;97049.00;;;1.52;60.52
596;BME280;19946;49.306;11.350;2023-04-04T12:30:48;97069.38;;;1.95;58.84
596;BME280;19946;49.306;11.350;2023-04-04T12:33:48;96970.22;;;1.84;59.70
596;BME280;19946;49.306;11.350;2023-04-04T12:36:51;97046.16;;;2.81;60.52
596;BME280;19946;49.306;11.350;2023-04-04T12:39:54;97049.59;;;2.80;56.78
596;BME280;19946;49.306;11.350;2023-04-04T12:42:55;97077.59;;;2.44;57.75
596;BME280;19946;49.306;11.350;2023-04-04T12:45:56;97036.38;;;2.11;59.86
596;BME280;19946;49.306;11.350;2023-04-04T12:48:58;97064.97;;;2.39;57.31
596;BME280;19946;49.306;11.350;2023-04-04T12:51:58;97020.78;;;2.17;58.11
596;BME280;19946;49.306;11.350;2023-04-04T12:55:08;96984.47;;;1.70;56.56
596;BME280;19946;49.306;11.350;2023-04-04T12:58:08;97083.88;;;2.76;58.80
596;BME280;19946;49.306;11.350;2023-04-04T13:01:09;96996.22;;;2.53;56.72
596;BME280;19946;49.306;11.350;2023-04-04T13:04:09;97049.09;;;3.64;59.06
596;BME280;19946;49.306;11.350;2023-04-04T13:07:23;97060.75;;;4.73;53.58
596;BME280;19946;49.306;11.350;2023-04-04T13:10:24;97024.72;;;4.09;53.15
596;BME280;19946;49.306;11.350;2023-04-04T13:13:32;97045.56;;;4.35;51.72
596;BME280;19946;49.306;11.350;2023-04-04T13:16:34;97025.03;;;4.53;50.77
596;BME280;19946;49.306;11.350;2023-04-04T13:19:37;97028.16;;;4.42;55.29
596;BME280;19946;49.306;11.350;2023-04-04T13:22:38;96982.03;;;4.25;50.78
596;BME280;19946;49.306;11.350;2023-04-04T13:25:39;96997.94;;;4.64;53.35
596;BME280;19946;49.306;11.350;2023-04-04T13:28:39;97036.38;;;4.14;53.21
596;BME280;19946;49.306;11.350;2023-04-04T13:31:39;96972.75;;;3.89;54.92
596;BME280;19946;49.306;11.350;2023-04-04T13:34:40;96939.25;;;3.92;54.18
596;BME280;19946;49.306;11.350;2023-04-04T13:37:41;97012.28;;;4.84;52.73
596;BME280;19946;49.306;11.350;2023-04-04T13:40:41;97024.63;;;4.27;50.63
596;BME280;19946;49.306;11.350;2023-04-04T13:43:41;97006.34;;;3.66;51.02
596;BME280;19946;49.306;11.350;2023-04-04T13:46:42;96967.13;;;3.47;52.26
596;BME280;19946;49.306;11.350;2023-04-04T13:49:42;96983.34;;;3.64;54.32
596;BME280;19946;49.306;11.350;2023-04-04T13:52:43;97033.53;;;3.14;54.34
596;BME280;19946;49.306;11.350;2023-04-04T13:55:43;97022.88;;;3.04;55.04
596;BME280;19946;49.306;11.350;2023-04-04T13:58:43;97019.28;;;2.71;53.26
596;BME280;19946;49.306;11.350;2023-04-04T14:01:44;97015.41;;;2.62;52.40
596;BME280;19946;49.306;11.350;2023-04-04T14:04:44;97012.94;;;3.53;51.00
596;BME280;19946;49.306;11.350;2023-04-04T14:07:45;96966.00;;;3.70;57.29
596;BME280;19946;49.306;11.350;2023-04-04T14:10:45;96946.44;;;3.68;53.37
596;BME280;19946;49.306;11.350;2023-04-04T14:13:45;96923.34;;;3.17;52.64
596;BME280;19946;49.306;11.350;2023-04-04T14:16:46;97020.91;;;2.92;54.52
596;BME280;19946;49.306;11.350;2023-04-04T14:19:46;97032.53;;;2.80;54.99
596;BME280;19946;49.306;11.350;2023-04-04T14:22:47;97032.84;;;2.73;55.29
596;BME280;19946;49.306;11.350;2023-04-04T14:25:47;97012.88;;;2.62;56.32
596;BME280;19946;49.306;11.350;2023-04-04T14:28:49;97034.19;;;2.42;56.93
596;BME280;19946;49.306;11.350;2023-04-04T14:31:50;96962.69;;;2.02;55.31
596;BME280;19946;49.306;11.350;2023-04-04T14:34:50;96970.59;;;1.96;56.82
596;BME280;19946;49.306;11.350;2023-04-04T14:37:51;97032.50;;;2.23;57.71
596;BME280;19946;49.306;11.350;2023-04-04T14:40:51;97022.78;;;2.10;56.37
596;BME280;19946;49.306;11.350;2023-04-04T14:43:51;97006.50;;;2.13;56.84
596;BME280;19946;49.306;11.350;2023-04-04T14:46:52;96993.63;;;2.35;56.44
596;BME280;19946;49.306;11.350;2023-04-04T14:49:52;97015.44;;;2.81;54.19
596;BME280;19946;49.306;11.350;2023-04-04T14:52:52;97015.00;;;2.71;53.68
596;BME280;19946;49.306;11.350;2023-04-04T14:55:55;96997.88;;;2.73;52.89
596;BME280;19946;49.306;11.350;2023-04-04T14:58:55;97003.34;;;2.84;53.52
596;BME280;19946;49.306;11.350;2023-04-04T15:01:56;97006.38;;;2.92;52.80
596;BME280;19946;49.306;11.350;2023-04-04T15:04:56;96965.44;;;3.11;53.44
596;BME280;19946;49.306;11.350;2023-04-04T15:07:57;97003.19;;;3.06;52.55
596;BME280;19946;49.306;11.350;2023-04-04T15:10:59;97002.38;;;2.87;52.32
596;BME280;19946;49.306;11.350;2023-04-04T15:13:59;96933.34;;;3.04;51.27
596;BME280;19946;49.306;11.350;2023-04-04T15:17:00;96944.91;;;3.13;52.68
596;BME280;19946;49.306;11.350;2023-04-04T15:20:00;96982.09;;;3.37;50.83
596;BME280;19946;49.306;11.350;2023-04-04T15:23:01;96934.09;;;2.51;53.36
596;BME280;19946;49.306;11.350;2023-04-04T15:26:01;96992.06;;;3.07;53.89
596;BME280;19946;49.306;11.350;2023-04-04T15:29:02;96970.22;;;2.63;54.19
596;BME280;19946;49.306;11.350;2023-04-04T15:32:04;96985.69;;;2.41;54.18
596;BME280;19946;49.306;11.350;2023-04-04T15:35:06;96975.63;;;2.17;55.36
596;BME280;19946;49.306;11.350;2023-04-04T15:38:14;96977.69;;;2.09;56.85
596;BME280;19946;49.306;11.350;2023-04-04T15:41:14;96993.69;;;1.94;56.55
596;BME280;19946;49.306;11.350;2023-04-04T15:44:14;96938.47;;;1.71;56.95
596;BME280;19946;49.306;11.350;2023-04-04T15:47:15;97007.72;;;2.04;54.83
596;BME280;19946;49.306;11.350;2023-04-04T15:50:15;96944.91;;;1.80;54.90
596;BME280;19946;49.306;11.350;2023-04-04T15:53:15;96929.13;;;1.91;54.32
596;BME280;19946;49.306;11.350;2023-04-04T15:56:17;96955.41;;;2.13;52.03
596;BME280;19946;49.306;11.350;2023-04-04T15:59:17;96942.97;;;2.05;52.52
596;BME280;19946;49.306;11.350;2023-04-04T16:02:17;96987.66;;;2.54;51.41
596;BME280;19946;49.306;11.350;2023-04-04T16:05:18;96974.16;;;2.32;51.76
596;BME280;19946;49.306;11.350;2023-04-04T16:08:18;96936.75;;;2.11;52.84
596;BME280;19946;49.306;11.350;2023-04-04T16:11:18;96978.59;;;2.47;52.35
596;BME280;19946;49.306;11.350;2023-04-04T16:14:19;96985.56;;;2.63;53.75
596;BME280;19946;49.306;11.350;2023-04-04T16:17:19;96847.41;;;1.91;55.15
596;BME280;19946;49.306;11.350;2023-04-04T16:20:20;96922.25;;;2.49;53.97
596;BME280;19946;49.306;11.350;2023-04-04T16:23:20;96912.47;;;2.40;54.19
596;BME280;19946;49.306;11.350;2023-04-04T16:26:20;96962.63;;;2.80;52.21
596;BME280;19946;49.306;11.350;2023-04-04T16:29:22;96947.84;;;2.68;51.26
596;BME280;19946;49.306;11.350;2023-04-04T16:32:22;96958.63;;;2.55;51.88
596;BME280;19946;49.306;11.350;2023-04-04T16:35:23;96965.09;;;2.44;51.99
596;BME280;19946;49.306;11.350;2023-04-04T16:38:23;96934.75;;;2.17;52.17
596;BME280;19946;49.306;11.350;2023-04-04T16:41:27;96944.97;;;2.17;52.72